createdAt,value
2017-09-06T00:00:18.472Z,1.87
2017-09-06T00:03:24.087Z,4.83
2017-09-06T00:06:29.751Z,2.40
2017-09-06T00:09:34.666Z,2.80
2017-09-06T00:12:40.004Z,2.00
2017-09-06T00:15:47.608Z,1.70
2017-09-06T00:18:54.052Z,3.37
2017-09-06T00:21:59.975Z,2.70
2017-09-06T00:25:05.433Z,1.80
2017-09-06T00:28:10.940Z,4.50
2017-09-06T00:31:15.921Z,2.73
2017-09-06T00:34:21.508Z,1.73
2017-09-06T00:37:26.955Z,2.00
2017-09-06T00:40:33.168Z,1.97
2017-09-06T00:43:41.412Z,2.80
2017-09-06T00:46:46.848Z,4.07
2017-09-06T00:49:52.075Z,3.90
2017-09-06T00:52:57.221Z,1.60
2017-09-06T00:56:03.685Z,2.60
2017-09-06T00:59:08.932Z,1.50
2017-09-06T01:02:14.719Z,4.13
2017-09-06T01:05:20.224Z,1.40
2017-09-06T01:08:25.331Z,2.23
2017-09-06T01:11:31.872Z,2.27
2017-09-06T01:14:37.074Z,1.83
2017-09-06T01:17:42.428Z,1.60
2017-09-06T01:20:47.927Z,1.77
2017-09-06T01:23:53.151Z,1.70
2017-09-06T01:26:58.527Z,2.30
2017-09-06T01:30:07.003Z,3.00
2017-09-06T01:33:12.033Z,1.50
2017-09-06T01:36:16.954Z,2.30
2017-09-06T01:39:22.187Z,3.00
2017-09-06T01:42:27.496Z,4.50
2017-09-06T01:45:32.948Z,4.10
2017-09-06T01:48:37.963Z,2.63
2017-09-06T01:51:43.691Z,2.10
2017-09-06T01:54:49.455Z,5.57
2017-09-06T01:57:54.765Z,1.90
2017-09-06T02:01:00.107Z,3.00
2017-09-06T02:04:05.727Z,9.50
2017-09-06T02:07:10.840Z,3.10
2017-09-06T02:10:15.535Z,3.90
2017-09-06T02:13:20.748Z,2.27
2017-09-06T02:16:25.779Z,3.23
2017-09-06T02:19:31.549Z,1.93
2017-09-06T02:22:36.319Z,1.70
2017-09-06T02:25:41.380Z,2.37
2017-09-06T02:28:47.735Z,3.30
2017-09-06T02:31:52.609Z,2.97
2017-09-06T02:34:58.276Z,2.77
2017-09-06T02:38:03.604Z,1.60
2017-09-06T02:41:09.127Z,1.57
2017-09-06T02:44:15.692Z,1.53
2017-09-06T02:47:20.891Z,1.70
2017-09-06T02:50:26.549Z,4.70
2017-09-06T02:53:31.508Z,2.30
2017-09-06T02:56:37.091Z,6.90
2017-09-06T02:59:42.299Z,1.80
2017-09-06T03:02:47.487Z,3.27
2017-09-06T03:05:53.490Z,1.33
2017-09-06T03:08:58.712Z,1.30
2017-09-06T03:12:03.496Z,1.63
2017-09-06T03:15:08.913Z,1.33
2017-09-06T03:18:14.025Z,1.23
2017-09-06T03:21:19.439Z,2.97
2017-09-06T03:24:24.619Z,2.10
2017-09-06T03:27:30.286Z,0.90
2017-09-06T03:30:35.682Z,2.13
2017-09-06T03:33:40.950Z,2.80
2017-09-06T03:36:46.287Z,1.70
2017-09-06T03:39:51.644Z,0.83
2017-09-06T03:42:56.659Z,1.00
2017-09-06T03:46:02.255Z,2.07
2017-09-06T03:49:07.336Z,1.30
2017-09-06T03:52:12.908Z,1.70
2017-09-06T03:55:21.212Z,1.03
2017-09-06T03:58:27.007Z,2.40
2017-09-06T04:01:32.635Z,0.97
2017-09-06T04:04:37.774Z,1.87
2017-09-06T04:07:42.655Z,2.20
2017-09-06T04:10:49.079Z,1.10
2017-09-06T04:13:54.592Z,1.00
2017-09-06T04:16:59.884Z,2.00
2017-09-06T04:20:06.715Z,0.87
2017-09-06T04:23:11.631Z,1.37
2017-09-06T04:26:16.955Z,1.10
2017-09-06T04:29:22.320Z,2.10
2017-09-06T04:32:27.937Z,1.23
2017-09-06T04:35:33.192Z,0.90
2017-09-06T04:38:38.982Z,4.60
2017-09-06T04:41:44.417Z,1.33
2017-09-06T04:44:51.925Z,1.37
2017-09-06T04:47:57.364Z,1.10
2017-09-06T04:51:03.573Z,1.10
2017-09-06T04:54:08.636Z,1.50
2017-09-06T04:57:14.632Z,4.13
2017-09-06T05:00:21.139Z,1.50
2017-09-06T05:03:27.311Z,1.13
2017-09-06T05:06:32.235Z,1.17
2017-09-06T05:09:37.516Z,1.20
2017-09-06T05:12:45.076Z,1.20
2017-09-06T05:15:50.100Z,1.23
2017-09-06T05:18:54.936Z,4.47
2017-09-06T05:21:59.777Z,5.20
2017-09-06T05:25:06.327Z,1.67
2017-09-06T05:28:11.832Z,1.00
2017-09-06T05:31:16.750Z,1.17
2017-09-06T05:34:21.947Z,1.00
2017-09-06T05:37:27.067Z,2.13
2017-09-06T05:40:32.136Z,1.33
2017-09-06T05:43:37.645Z,2.50
2017-09-06T05:46:42.881Z,1.23
2017-09-06T05:49:48.197Z,2.80
2017-09-06T05:52:54.248Z,1.77
2017-09-06T05:55:59.692Z,2.27
2017-09-06T05:59:04.852Z,2.33
2017-09-06T06:02:09.731Z,3.30
2017-09-06T06:05:14.742Z,2.17
2017-09-06T06:08:23.597Z,3.50
2017-09-06T06:11:29.023Z,4.17
2017-09-06T06:14:34.068Z,1.90
2017-09-06T06:17:38.857Z,1.20
2017-09-06T06:20:43.737Z,4.30
2017-09-06T06:23:49.395Z,2.53
2017-09-06T06:26:54.624Z,1.50
2017-09-06T06:29:59.745Z,2.33
2017-09-06T06:33:04.516Z,1.00
2017-09-06T06:36:10.295Z,1.60
2017-09-06T06:39:15.435Z,1.20
2017-09-06T06:42:21.532Z,1.73
2017-09-06T06:45:26.482Z,2.07
2017-09-06T06:48:31.640Z,1.47
2017-09-06T06:51:36.921Z,2.10
2017-09-06T06:54:42.192Z,4.47
2017-09-06T06:57:48.158Z,4.83
2017-09-06T07:00:53.745Z,2.60
2017-09-06T07:03:58.876Z,2.73
2017-09-06T07:07:04.254Z,2.40
2017-09-06T07:10:09.241Z,3.43
2017-09-06T07:13:14.501Z,2.60
2017-09-06T07:16:19.448Z,1.93
2017-09-06T07:19:24.453Z,3.03
2017-09-06T07:22:29.308Z,5.03
2017-09-06T07:25:34.656Z,2.47
2017-09-06T07:28:40.327Z,2.70
2017-09-06T07:31:45.388Z,3.27
2017-09-06T07:34:50.452Z,2.50
2017-09-06T07:37:55.416Z,1.70
2017-09-06T07:41:00.608Z,3.60
2017-09-06T07:44:05.756Z,2.60
2017-09-06T07:47:10.909Z,2.23
2017-09-06T07:50:15.580Z,2.87
2017-09-06T07:53:21.187Z,3.83
2017-09-06T07:56:27.019Z,3.40
2017-09-06T07:59:32.084Z,3.20
2017-09-06T08:02:36.968Z,3.87
2017-09-06T08:05:41.986Z,2.80
2017-09-06T08:08:46.696Z,1.33
2017-09-06T08:11:52.328Z,1.47
2017-09-06T08:14:57.728Z,2.17
2017-09-06T08:18:04.461Z,1.77
2017-09-06T08:21:09.634Z,2.60
2017-09-06T08:24:14.785Z,1.20
2017-09-06T08:27:20.074Z,1.57
2017-09-06T08:30:25.103Z,1.13
2017-09-06T08:33:30.404Z,2.13
2017-09-06T08:36:36.067Z,1.17
2017-09-06T08:39:40.851Z,1.67
2017-09-06T08:42:46.372Z,1.43
2017-09-06T08:45:51.860Z,3.50
2017-09-06T08:48:57.028Z,5.03
2017-09-06T08:52:02.577Z,1.10
2017-09-06T08:55:08.181Z,1.47
2017-09-06T08:58:12.979Z,3.50
2017-09-06T09:01:18.624Z,1.30
2017-09-06T09:04:23.663Z,0.70
2017-09-06T09:07:31.380Z,2.03
2017-09-06T09:10:36.160Z,1.10
2017-09-06T09:13:40.961Z,2.30
2017-09-06T09:16:46.447Z,2.70
2017-09-06T09:19:51.868Z,2.80
2017-09-06T09:22:58.447Z,2.50
2017-09-06T09:26:03.925Z,2.50
2017-09-06T09:29:11.856Z,1.53
2017-09-06T09:32:17.044Z,1.87
2017-09-06T09:35:22.792Z,2.10
2017-09-06T09:38:28.552Z,3.40
2017-09-06T09:41:33.440Z,1.53
2017-09-06T09:44:38.929Z,1.17
2017-09-06T09:47:45.629Z,1.90
2017-09-06T09:50:50.716Z,0.70
2017-09-06T09:53:56.522Z,0.70
2017-09-06T09:57:01.272Z,1.10
2017-09-06T10:00:06.412Z,1.93
2017-09-06T10:03:12.115Z,0.73
2017-09-06T10:06:16.948Z,3.37
2017-09-06T10:09:23.597Z,8.73
2017-09-06T10:12:29.092Z,1.80
2017-09-06T10:15:34.579Z,1.10
2017-09-06T10:18:40.368Z,1.07
2017-09-06T10:21:45.479Z,2.83
2017-09-06T10:24:50.272Z,1.20
2017-09-06T10:27:55.931Z,2.67
2017-09-06T10:31:00.966Z,1.83
2017-09-06T10:34:06.312Z,2.07
2017-09-06T10:37:11.604Z,1.67
2017-09-06T10:40:16.523Z,4.40
2017-09-06T10:43:22.199Z,5.30
2017-09-06T10:46:27.120Z,2.60
2017-09-06T10:49:32.920Z,5.40
2017-09-06T10:52:37.773Z,5.20
2017-09-06T10:55:43.531Z,5.13
2017-09-06T10:58:48.664Z,1.97
2017-09-06T11:01:53.535Z,1.50
2017-09-06T11:04:59.143Z,2.33
2017-09-06T11:08:04.157Z,1.53
2017-09-06T11:11:08.877Z,1.93
2017-09-06T11:14:13.564Z,3.20
2017-09-06T11:17:18.811Z,13.03
2017-09-06T11:20:24.013Z,1.83
2017-09-06T11:23:28.692Z,7.80
2017-09-06T11:26:33.676Z,3.20
2017-09-06T11:29:38.763Z,1.30
2017-09-06T11:32:44.391Z,2.40
2017-09-06T11:35:49.761Z,2.83
2017-09-06T11:38:55.391Z,2.30
2017-09-06T11:42:00.797Z,3.80
2017-09-06T11:45:06.336Z,4.03
2017-09-06T11:48:11.336Z,1.90
2017-09-06T11:51:21.719Z,2.00
2017-09-06T11:54:32.994Z,1.87
2017-09-06T11:57:39.869Z,3.67
2017-09-06T12:00:45.337Z,2.27
2017-09-06T12:03:50.900Z,4.33
2017-09-06T12:06:55.989Z,3.13
2017-09-06T12:10:02.101Z,5.57
2017-09-06T12:13:06.723Z,1.40
2017-09-06T12:16:11.763Z,7.13
2017-09-06T12:19:17.169Z,7.03
2017-09-06T12:22:22.272Z,2.60
2017-09-06T12:25:27.415Z,4.70
2017-09-06T12:28:32.854Z,11.07
2017-09-06T12:31:38.172Z,3.90
2017-09-06T12:34:43.186Z,4.00
2017-09-06T12:37:48.178Z,5.60
2017-09-06T12:40:54.228Z,5.50
2017-09-06T12:43:59.648Z,2.60
2017-09-06T12:47:04.588Z,5.80
2017-09-06T12:50:10.880Z,7.73
2017-09-06T12:53:15.723Z,5.70
2017-09-06T12:56:21.278Z,9.53
2017-09-06T12:59:26.845Z,7.27
2017-09-06T13:02:33.562Z,6.47
2017-09-06T13:05:41.808Z,9.97
2017-09-06T13:08:47.040Z,4.47
2017-09-06T13:11:51.913Z,3.20
2017-09-06T13:14:56.612Z,5.03
2017-09-06T13:18:02.379Z,4.50
2017-09-06T13:21:08.200Z,5.90
2017-09-06T13:24:13.619Z,6.57
2017-09-06T13:27:18.649Z,5.60
2017-09-06T13:30:24.183Z,4.80
2017-09-06T13:33:29.183Z,4.83
2017-09-06T13:36:34.661Z,2.93
2017-09-06T13:39:40.010Z,4.20
2017-09-06T13:42:45.064Z,4.17
2017-09-06T13:45:50.128Z,7.00
2017-09-06T13:48:55.171Z,5.53
2017-09-06T13:52:00.839Z,7.10
2017-09-06T13:55:06.612Z,12.37
2017-09-06T13:58:11.781Z,6.73
2017-09-06T14:01:16.813Z,5.43
2017-09-06T14:04:22.028Z,8.13
2017-09-06T14:07:27.284Z,6.00
2017-09-06T14:10:32.680Z,3.30
2017-09-06T14:13:38.384Z,7.73
2017-09-06T14:16:46.098Z,7.13
2017-09-06T14:19:51.831Z,9.73
2017-09-06T14:22:57.269Z,5.70
2017-09-06T14:26:02.908Z,5.87
2017-09-06T14:29:09.525Z,7.67
2017-09-06T14:32:15.388Z,3.80
2017-09-06T14:35:21.644Z,4.97
2017-09-06T14:38:26.789Z,8.60
2017-09-06T14:41:31.872Z,4.23
2017-09-06T14:44:37.527Z,6.23
2017-09-06T14:47:43.022Z,5.17
2017-09-06T14:50:48.019Z,5.33
2017-09-06T14:53:53.099Z,6.20
2017-09-06T14:56:58.404Z,9.87
2017-09-06T15:00:07.907Z,6.57
2017-09-06T15:03:14.748Z,4.37
2017-09-06T15:06:19.788Z,5.43
2017-09-06T15:09:25.000Z,5.83
2017-09-06T15:12:30.641Z,8.07
2017-09-06T15:15:35.899Z,11.63
2017-09-06T15:18:40.890Z,9.37
2017-09-06T15:21:46.136Z,9.30
2017-09-06T15:24:51.868Z,6.10
2017-09-06T15:27:56.800Z,4.87
2017-09-06T15:31:02.186Z,5.80
2017-09-06T15:34:07.094Z,6.43
2017-09-06T15:37:12.481Z,10.60
2017-09-06T15:40:18.843Z,4.10
2017-09-06T15:43:24.371Z,6.50
2017-09-06T15:46:29.529Z,5.87
2017-09-06T15:49:34.374Z,6.70
2017-09-06T15:52:39.350Z,6.37
2017-09-06T15:55:44.370Z,5.67
2017-09-06T15:58:49.107Z,7.17
2017-09-06T16:01:54.624Z,6.30
2017-09-06T16:04:59.832Z,7.97
2017-09-06T16:08:04.668Z,5.30
2017-09-06T16:11:10.239Z,11.50
2017-09-06T16:14:15.259Z,6.53
2017-09-06T16:17:20.320Z,9.43
2017-09-06T16:20:25.772Z,9.20
2017-09-06T16:23:31.815Z,6.77
2017-09-06T16:26:36.916Z,6.37
2017-09-06T16:29:42.527Z,4.87
2017-09-06T16:32:48.077Z,4.60
2017-09-06T16:35:53.384Z,10.80
2017-09-06T16:38:58.429Z,6.43
2017-09-06T16:42:04.038Z,10.70
2017-09-06T16:45:09.184Z,8.23
2017-09-06T16:48:14.426Z,5.30
2017-09-06T16:51:19.666Z,9.43
2017-09-06T16:54:24.451Z,5.70
2017-09-06T16:57:29.885Z,12.60
2017-09-06T17:00:35.405Z,4.40
2017-09-06T17:03:48.681Z,5.03
2017-09-06T17:06:54.408Z,8.07
2017-09-06T17:10:04.564Z,9.17
2017-09-06T17:13:09.559Z,8.87
2017-09-06T17:16:16.567Z,2.73
2017-09-06T17:19:21.591Z,8.33
2017-09-06T17:22:26.480Z,8.07
2017-09-06T17:25:31.235Z,7.63
2017-09-06T17:28:36.469Z,8.47
2017-09-06T17:31:42.192Z,5.03
2017-09-06T17:34:47.075Z,12.50
2017-09-06T17:37:52.072Z,8.50
2017-09-06T17:40:56.828Z,4.97
2017-09-06T17:44:01.745Z,5.33
2017-09-06T17:47:07.419Z,8.70
2017-09-06T17:50:12.355Z,11.43
2017-09-06T17:53:17.116Z,10.00
2017-09-06T17:56:22.673Z,8.00
2017-09-06T17:59:27.871Z,5.60
2017-09-06T18:02:33.609Z,4.40
2017-09-06T18:05:38.795Z,4.80
2017-09-06T18:08:44.534Z,4.20
2017-09-06T18:11:49.493Z,5.57
2017-09-06T18:14:54.706Z,4.43
2017-09-06T18:18:00.115Z,4.20
2017-09-06T18:21:05.687Z,6.53
2017-09-06T18:24:11.131Z,9.87
2017-09-06T18:27:16.672Z,7.87
2017-09-06T18:30:21.894Z,6.57
2017-09-06T18:33:27.463Z,6.17
2017-09-06T18:36:32.748Z,5.30
2017-09-06T18:39:38.365Z,8.93
2017-09-06T18:42:43.305Z,10.17
2017-09-06T18:45:48.171Z,8.53
2017-09-06T18:48:53.567Z,13.77
2017-09-06T18:52:00.913Z,10.57
2017-09-06T18:55:06.384Z,7.93
2017-09-06T18:58:11.460Z,11.03
2017-09-06T19:01:16.580Z,12.73
2017-09-06T19:04:21.552Z,8.73
2017-09-06T19:07:27.084Z,8.10
2017-09-06T19:10:32.123Z,5.50
2017-09-06T19:13:37.283Z,9.43
2017-09-06T19:16:42.881Z,4.53
2017-09-06T19:19:48.147Z,8.47
2017-09-06T19:22:53.765Z,7.73
2017-09-06T19:25:59.032Z,8.10
2017-09-06T19:29:04.032Z,10.87
2017-09-06T19:32:09.547Z,4.80
2017-09-06T19:35:15.093Z,13.23
2017-09-06T19:38:20.008Z,9.03
2017-09-06T19:41:25.824Z,17.33
2017-09-06T19:44:30.833Z,8.57
2017-09-06T19:47:35.663Z,5.93
2017-09-06T19:50:41.091Z,8.63
2017-09-06T19:53:46.793Z,6.90
2017-09-06T19:56:51.869Z,16.77
2017-09-06T19:59:57.095Z,10.47
2017-09-06T20:03:02.776Z,8.83
2017-09-06T20:06:08.126Z,12.63
2017-09-06T20:09:13.156Z,16.23
2017-09-06T20:12:18.306Z,10.50
2017-09-06T20:15:23.809Z,11.70
2017-09-06T20:18:29.524Z,11.80
2017-09-06T20:21:34.863Z,7.70
2017-09-06T20:24:42.020Z,10.23
2017-09-06T20:27:47.359Z,10.03
2017-09-06T20:30:52.225Z,13.40
2017-09-06T20:33:57.462Z,9.17
2017-09-06T20:37:02.718Z,7.83
2017-09-06T20:40:07.412Z,10.00
2017-09-06T20:43:16.084Z,7.20
2017-09-06T20:46:20.959Z,18.20
2017-09-06T20:49:26.019Z,11.13
2017-09-06T20:52:31.328Z,10.33
2017-09-06T20:55:36.820Z,8.20
2017-09-06T20:58:42.019Z,6.77
2017-09-06T21:01:47.745Z,12.80
2017-09-06T21:04:52.764Z,14.07
2017-09-06T21:07:57.771Z,14.53
2017-09-06T21:11:03.336Z,8.00
2017-09-06T21:14:08.300Z,7.83
2017-09-06T21:17:13.675Z,13.27
2017-09-06T21:20:19.032Z,18.60
2017-09-06T21:23:24.040Z,11.93
2017-09-06T21:26:28.987Z,12.23
2017-09-06T21:29:34.348Z,12.97
2017-09-06T21:32:39.851Z,18.57
2017-09-06T21:35:44.896Z,11.00
2017-09-06T21:38:50.253Z,11.97
2017-09-06T21:41:55.577Z,11.33
2017-09-06T21:45:00.882Z,12.73
2017-09-06T21:48:05.684Z,10.43
2017-09-06T21:51:11.429Z,13.20
2017-09-06T21:54:16.764Z,8.90
2017-09-06T21:57:21.891Z,11.23
2017-09-06T22:00:27.703Z,10.80
2017-09-06T22:03:32.631Z,8.60
2017-09-06T22:06:37.829Z,13.00
2017-09-06T22:09:43.356Z,17.93
2017-09-06T22:12:48.347Z,7.00
2017-09-06T22:15:53.064Z,10.23
2017-09-06T22:18:58.428Z,11.23
2017-09-06T22:22:03.871Z,6.83
2017-09-06T22:25:08.756Z,15.30
2017-09-06T22:28:14.451Z,12.30
2017-09-06T22:31:19.926Z,12.93
2017-09-06T22:34:25.236Z,9.03
2017-09-06T22:37:30.797Z,17.67
2017-09-06T22:40:35.884Z,11.87
2017-09-06T22:43:41.495Z,14.53
2017-09-06T22:46:47.202Z,11.90
2017-09-06T22:49:52.066Z,13.93
2017-09-06T22:52:57.541Z,11.83
2017-09-06T22:56:03.157Z,11.73
2017-09-06T22:59:08.795Z,11.20
2017-09-06T23:02:13.751Z,13.83
2017-09-06T23:05:18.960Z,9.50
2017-09-06T23:08:23.964Z,8.43
2017-09-06T23:11:29.298Z,15.17
2017-09-06T23:14:34.663Z,10.50
2017-09-06T23:17:40.299Z,16.13
2017-09-06T23:20:45.524Z,13.23
2017-09-06T23:23:50.355Z,13.23
2017-09-06T23:26:55.305Z,10.73
2017-09-06T23:30:00.305Z,13.40
2017-09-06T23:33:05.521Z,13.93
2017-09-06T23:36:11.076Z,10.67
2017-09-06T23:39:15.928Z,11.43
2017-09-06T23:42:20.767Z,9.00
2017-09-06T23:45:25.716Z,11.73
2017-09-06T23:48:31.037Z,8.40
2017-09-06T23:51:36.860Z,19.33
2017-09-06T23:54:42.397Z,14.93
2017-09-06T23:57:47.223Z,11.03
